Aérodrome :
LOGIN :

S'inscrire | Disclaimer

   EN    FR    IT 

 










Légende :    VFR   VFR Marginal   IFR   IFR Intensif   IFR Très Intensif
Visi : 
Plafond : 
>= 8 km
>= 3000ft
5 à 8 km
1000 à 3000 ft
1500m à 5 km
500 à 1000 ft
800 à 1500m
200 à 500 ft
< 800m
< 200 ft
Symboles :   Orages  Brouillard  Fortes neiges  Fortes précipitations  Vent > 20 kt
SIGMETs :   Divers  Orages  Givrage  Turbulence  Onde Orograph.  Cendres Volcan.







- Altitude de l'aérodrome : 885 ft
- Code IATA : BAS
- Voir les cartes d'approche


LFSB - Bale-Mulhouse

DERNIER METAR :
  • 130730Z 33004KT 4800 BR BKN004 BKN040 M01/M01 Q1014 BECMG FM0800 6000 NSW SCT005 BKN040

METARs EXPIRÉS :
  • 130700Z 33004KT 4500 BR BKN004 BKN040 M01/M01 Q1014 TEMPO 6000 NSW BKN006
  • 130630Z 32003KT 4500 BR BKN004 BKN040 M01/M01 Q1014 TEMPO 6000 NSW BKN006
  • 130600Z 30003KT 270V340 4000 BR BKN003 M01/M01 Q1014 NOSIG
  • 130530Z 31004KT 4000 BR BKN003 M01/M01 Q1014 NOSIG
  • 130500Z 34005KT 4500 BR BKN003 M01/M01 Q1015 NOSIG

TAF AMD TAF LFSB
Valide du 13 à 07h jusqu'au 14 à 06h UTC


130737Z 1307/1406 33004KT 4500 BR BKN004 BKN040
BECMG 1308/1310 8000 NSW FEW006 BKN030
BECMG 1320/1322 4500 BR
PROB40 1323/1406 3000 BR BKN003
Météo : +33 3 89 90 31 11
Pas de NOTAMs connus pour ce terrain.



MET'MAP, la Météo Aéronautique d'un coup d'oeil ! - Copyright ORBIFLY Décembre 2007 - Disclaimer

ORBIFLY MET'MAP TEAM :

Programmation & Développement : Alexandra Zaïnal
Conception & Développement : Baudouin d'Aumeries
Co-Programmation & Développement : Marc-Olivier Méhu
Soutien technique & logistique : Manuel Goepfert

Contact : metmap@orbifly.com




SOURCES & CREDITS :

   NOAA